Time;durP1;ratioP1;P1;durP2;ratioP2;P2;SDS_P1;SDS_P2;PMS_P1;PMS_P2;Temp;Humidity;BMP_temperature;BMP_pressure;BME280_temperature;BME280_humidity;BME280_pressure;Samples;Min_cycle;Max_cycle;Signal;HPM_P1;HPM_P2
2022/06/26 00:01:25;;;;;;;11.93;5.65;;;16.80;99.90;;;;;;5038148;28;20529;-71
2022/06/26 00:03:51;;;;;;;10.93;5.82;;;16.80;99.90;;;;;;5020868;28;20127;-72
2022/06/26 00:06:17;;;;;;;15.07;6.00;;;16.80;99.90;;;;;;5044508;28;20041;-71
2022/06/26 00:08:42;;;;;;;10.65;5.60;;;16.80;99.90;;;;;;5054459;28;20037;-71
2022/06/26 00:11:08;;;;;;;11.38;6.10;;;16.80;99.90;;;;;;5054689;28;20445;-71
2022/06/26 00:13:34;;;;;;;11.18;5.80;;;16.80;99.90;;;;;;5060546;28;20036;-70
2022/06/26 00:15:59;;;;;;;11.82;6.13;;;16.80;99.90;;;;;;5044597;28;20565;-71
2022/06/26 00:18:25;;;;;;;15.48;6.78;;;16.80;99.90;;;;;;5043330;28;20595;-71
2022/06/26 00:20:50;;;;;;;13.02;6.40;;;16.80;99.90;;;;;;5042814;28;20145;-71
2022/06/26 00:23:16;;;;;;;14.23;6.10;;;16.80;99.90;;;;;;5038202;28;20485;-71
2022/06/26 00:25:42;;;;;;;13.02;6.35;;;16.80;99.90;;;;;;5046086;28;20037;-70
2022/06/26 00:28:07;;;;;;;15.07;6.85;;;16.80;99.90;;;;;;5041028;28;20600;-71
2022/06/26 00:30:33;;;;;;;11.88;6.68;;;16.80;99.90;;;;;;5025688;28;20105;-71
2022/06/26 00:32:58;;;;;;;12.90;6.60;;;16.80;99.90;;;;;;5023430;28;20033;-72
2022/06/26 00:35:24;;;;;;;11.02;6.18;;;16.80;99.90;;;;;;5024331;28;20028;-71
2022/06/26 00:37:50;;;;;;;11.60;6.07;;;16.80;99.90;;;;;;5043858;28;20145;-70
2022/06/26 00:40:15;;;;;;;13.82;7.00;;;16.80;99.90;;;;;;5023517;28;20128;-71
2022/06/26 00:42:41;;;;;;;13.38;6.55;;;16.80;99.90;;;;;;5040891;28;20042;-70
2022/06/26 00:45:08;;;;;;;10.95;6.65;;;16.80;99.90;;;;;;5049303;28;20060;-70
2022/06/26 00:47:33;;;;;;;12.60;7.47;;;16.80;99.90;;;;;;5049473;28;20033;-71
2022/06/26 00:49:59;;;;;;;15.02;7.07;;;16.70;99.90;;;;;;5051061;28;20055;-71
2022/06/26 00:52:27;;;;;;;11.75;7.15;;;16.80;99.90;;;;;;5060735;28;20100;-72
2022/06/26 00:54:54;;;;;;;13.43;7.78;;;16.80;99.90;;;;;;5029335;28;20057;-71
2022/06/26 00:57:21;;;;;;;12.48;7.60;;;16.80;99.90;;;;;;5028721;28;20043;-72
2022/06/26 00:59:48;;;;;;;11.88;7.85;;;16.80;99.90;;;;;;5040046;28;20037;-71
2022/06/26 01:02:14;;;;;;;17.20;8.88;;;16.80;99.90;;;;;;5042088;28;20037;-72
2022/06/26 01:04:39;;;;;;;21.98;9.40;;;16.80;99.90;;;;;;5040718;28;20037;-71
2022/06/26 01:07:06;;;;;;;18.45;9.05;;;16.80;99.90;;;;;;5039853;28;20064;-72
2022/06/26 01:09:32;;;;;;;18.08;9.27;;;16.80;99.90;;;;;;5024293;28;20045;-72
2022/06/26 01:11:57;;;;;;;16.02;8.98;;;16.80;99.90;;;;;;5041375;28;20036;-70
2022/06/26 01:14:23;;;;;;;23.48;9.73;;;16.80;99.90;;;;;;5038903;28;20030;-71
2022/06/26 01:16:50;;;;;;;17.17;9.57;;;16.90;99.90;;;;;;5024245;28;20158;-71
2022/06/26 01:19:17;;;;;;;18.13;9.40;;;16.90;99.90;;;;;;5039956;28;20025;-72
2022/06/26 01:21:43;;;;;;;18.80;10.20;;;16.90;99.90;;;;;;5041869;28;20412;-71
2022/06/26 01:24:09;;;;;;;17.20;9.45;;;16.90;99.90;;;;;;5034688;28;20527;-71
2022/06/26 01:26:35;;;;;;;17.70;9.90;;;17.00;99.90;;;;;;5020110;28;20147;-71
2022/06/26 01:29:02;;;;;;;17.00;9.50;;;16.90;99.90;;;;;;5038762;28;20078;-72
2022/06/26 01:31:28;;;;;;;17.70;10.20;;;16.90;99.90;;;;;;5042001;28;20463;-70
2022/06/26 01:33:54;;;;;;;18.27;9.80;;;16.90;99.90;;;;;;5037302;28;20117;-71
2022/06/26 01:36:20;;;;;;;19.85;10.07;;;16.90;99.90;;;;;;5021199;28;20029;-71
2022/06/26 01:38:46;;;;;;;21.20;10.13;;;16.90;99.90;;;;;;5040865;28;20039;-70
2022/06/26 01:41:11;;;;;;;17.10;8.85;;;16.90;99.90;;;;;;5042358;28;20102;-70
2022/06/26 01:43:38;;;;;;;20.48;10.18;;;16.90;99.90;;;;;;5024269;28;20575;-71
2022/06/26 01:46:05;;;;;;;16.10;8.50;;;16.90;99.90;;;;;;5021209;28;20044;-72
2022/06/26 01:48:33;;;;;;;17.73;9.40;;;16.80;99.90;;;;;;5040817;28;20037;-71
2022/06/26 01:51:00;;;;;;;21.15;8.85;;;16.80;99.90;;;;;;5038768;28;20053;-69
2022/06/26 01:53:26;;;;;;;23.08;8.90;;;16.70;99.90;;;;;;5023293;28;20050;-71
2022/06/26 01:55:52;;;;;;;15.52;8.23;;;16.70;99.90;;;;;;5040109;28;20412;-72
2022/06/26 01:58:17;;;;;;;19.67;8.65;;;16.70;99.90;;;;;;5021658;28;20030;-71
2022/06/26 02:00:44;;;;;;;20.92;9.10;;;16.70;99.90;;;;;;5043976;28;20030;-69
2022/06/26 02:03:10;;;;;;;18.48;8.73;;;16.60;99.90;;;;;;5041413;28;20497;-69
2022/06/26 02:05:36;;;;;;;23.52;8.77;;;16.50;99.90;;;;;;5046887;28;20045;-71
2022/06/26 02:08:03;;;;;;;21.90;8.57;;;16.50;99.90;;;;;;5050297;28;20104;-71
2022/06/26 02:16:02;;;;;;;20.45;9.35;;;16.40;99.90;;;;;;5036670;28;20117;-71
2022/06/26 02:18:28;;;;;;;18.05;8.27;;;16.40;99.90;;;;;;5046474;28;20033;-70
2022/06/26 02:20:54;;;;;;;18.20;8.10;;;16.40;99.90;;;;;;5044960;28;20520;-70
2022/06/26 02:23:21;;;;;;;15.52;8.23;;;16.40;99.90;;;;;;5043256;28;20536;-71
2022/06/26 02:25:47;;;;;;;18.58;8.75;;;16.30;99.90;;;;;;5042828;28;20789;-70
2022/06/26 02:28:13;;;;;;;25.05;9.68;;;16.30;99.90;;;;;;5039810;28;20045;-69
2022/06/26 02:30:38;;;;;;;17.38;8.15;;;16.20;99.90;;;;;;5041236;28;20058;-71
2022/06/26 02:33:05;;;;;;;19.55;8.40;;;16.20;99.90;;;;;;5038616;28;20036;-71
2022/06/26 02:35:31;;;;;;;17.10;8.45;;;16.20;99.90;;;;;;5021476;28;20044;-71
2022/06/26 02:37:56;;;;;;;18.75;8.88;;;16.20;99.90;;;;;;5037593;28;20033;-69
2022/06/26 02:40:23;;;;;;;18.05;8.93;;;16.10;99.90;;;;;;5020046;28;20032;-71
2022/06/26 02:42:49;;;;;;;20.17;8.82;;;16.00;99.90;;;;;;5039952;28;20064;-71
2022/06/26 02:45:15;;;;;;;23.35;9.02;;;16.00;99.90;;;;;;5037640;28;20072;-71
2022/06/26 02:47:41;;;;;;;16.02;7.97;;;16.00;99.90;;;;;;5040759;28;20088;-71
2022/06/26 02:50:07;;;;;;;20.20;8.55;;;16.00;99.90;;;;;;5037614;28;20044;-68
2022/06/26 02:52:37;;;;;;;17.05;8.60;;;15.90;99.90;;;;;;5039268;28;20045;-71
2022/06/26 02:55:04;;;;;;;15.57;7.85;;;15.90;99.90;;;;;;5040392;28;20045;-71
2022/06/26 02:57:29;;;;;;;22.15;8.52;;;15.80;99.90;;;;;;5043529;28;20033;-71
2022/06/26 02:59:55;;;;;;;46.78;9.25;;;15.80;99.90;;;;;;5045008;28;20113;-71
2022/06/26 03:02:20;;;;;;;20.75;8.75;;;15.80;99.90;;;;;;5048706;28;20037;-71
2022/06/26 03:04:46;;;;;;;16.08;7.45;;;15.70;99.90;;;;;;5044478;28;20029;-70
2022/06/26 03:07:12;;;;;;;16.50;7.90;;;15.70;99.90;;;;;;5046879;28;20110;-71
2022/06/26 03:09:38;;;;;;;17.85;7.75;;;15.60;99.90;;;;;;5038007;28;20049;-71
2022/06/26 03:12:04;;;;;;;20.00;8.15;;;15.70;99.90;;;;;;5038055;28;20056;-71
2022/06/26 03:14:30;;;;;;;21.38;8.80;;;15.60;99.90;;;;;;5038327;28;20049;-70
2022/06/26 03:16:56;;;;;;;18.25;6.90;;;15.50;99.90;;;;;;5019920;28;20037;-71
2022/06/26 03:19:21;;;;;;;17.30;7.72;;;15.50;99.90;;;;;;5040274;28;20463;-71
2022/06/26 03:21:47;;;;;;;22.75;7.70;;;15.50;99.90;;;;;;5035663;28;20036;-70
2022/06/26 03:24:13;;;;;;;20.02;7.75;;;15.50;99.90;;;;;;5040491;28;20037;-69
2022/06/26 03:26:39;;;;;;;20.45;8.55;;;15.40;99.90;;;;;;5038938;28;20063;-71
2022/06/26 03:29:08;;;;;;;17.17;7.18;;;15.40;99.90;;;;;;5035736;28;20037;-72
2022/06/26 03:31:34;;;;;;;20.58;6.95;;;15.30;99.90;;;;;;5021834;28;20030;-70
2022/06/26 03:34:00;;;;;;;16.23;6.47;;;15.30;99.90;;;;;;5037250;28;20547;-70
2022/06/26 03:36:27;;;;;;;16.80;6.53;;;15.30;99.90;;;;;;5019916;28;20431;-71
2022/06/26 03:38:53;;;;;;;15.77;6.35;;;15.30;99.90;;;;;;5039504;28;20036;-71
2022/06/26 03:41:20;;;;;;;15.15;6.78;;;15.20;99.90;;;;;;5027965;28;20037;-70
2022/06/26 03:43:45;;;;;;;13.68;6.22;;;15.20;99.90;;;;;;5046591;28;20059;-70
2022/06/26 03:46:11;;;;;;;17.10;5.63;;;15.30;99.90;;;;;;5036742;28;20516;-70
2022/06/26 03:48:37;;;;;;;16.77;6.60;;;15.20;99.90;;;;;;5025123;28;20084;-72
2022/06/26 03:51:04;;;;;;;14.93;5.65;;;15.10;99.90;;;;;;5047672;28;20497;-70
2022/06/26 03:53:30;;;;;;;12.68;5.53;;;15.10;99.90;;;;;;5028124;28;20029;-70
2022/06/26 03:55:56;;;;;;;17.25;5.60;;;15.10;99.90;;;;;;5022627;28;20032;-71
2022/06/26 03:58:21;;;;;;;12.00;5.40;;;15.10;99.90;;;;;;5041195;28;20034;-71
2022/06/26 04:00:47;;;;;;;18.05;5.60;;;15.10;99.90;;;;;;5036523;28;20061;-70
2022/06/26 04:03:13;;;;;;;17.02;6.18;;;15.10;99.90;;;;;;5046005;28;20026;-71
2022/06/26 04:05:38;;;;;;;21.50;6.05;;;15.10;99.90;;;;;;5047695;28;20026;-71
2022/06/26 04:08:05;;;;;;;18.67;5.97;;;15.10;99.90;;;;;;5041601;28;20029;-70
2022/06/26 04:10:31;;;;;;;12.70;5.55;;;15.10;99.90;;;;;;5041594;28;20044;-69
2022/06/26 04:12:59;;;;;;;17.73;5.80;;;15.00;99.90;;;;;;5024475;28;20061;-70
2022/06/26 04:15:25;;;;;;;14.40;6.22;;;15.00;99.90;;;;;;5024335;28;20508;-71
2022/06/26 04:17:51;;;;;;;23.20;5.72;;;15.00;99.90;;;;;;5039808;28;20079;-71
2022/06/26 04:20:16;;;;;;;18.83;6.70;;;15.00;99.90;;;;;;5041748;28;20523;-69
2022/06/26 04:22:42;;;;;;;15.02;7.07;;;15.00;99.90;;;;;;5039550;28;20029;-71
2022/06/26 04:25:08;;;;;;;17.30;6.78;;;15.00;99.90;;;;;;5043321;28;20040;-71
2022/06/26 04:27:33;;;;;;;14.50;6.47;;;15.00;99.90;;;;;;5022372;28;20116;-71
2022/06/26 04:29:59;;;;;;;19.48;6.75;;;15.00;99.90;;;;;;5040261;28;20076;-71
2022/06/26 04:32:24;;;;;;;16.77;6.70;;;15.00;99.90;;;;;;5023023;28;20060;-70
2022/06/26 04:34:50;;;;;;;14.13;6.72;;;15.00;99.90;;;;;;5037934;28;20037;-70
2022/06/26 04:37:16;;;;;;;16.52;7.55;;;15.10;99.90;;;;;;5042948;28;20052;-70
2022/06/26 04:39:41;;;;;;;15.25;6.32;;;15.10;99.90;;;;;;5024806;28;20090;-71
2022/06/26 04:42:07;;;;;;;15.35;6.25;;;15.10;99.90;;;;;;5038421;28;20037;-72
2022/06/26 04:44:32;;;;;;;18.73;7.00;;;15.10;99.90;;;;;;5025449;28;20051;-68
2022/06/26 04:46:58;;;;;;;17.45;6.15;;;15.10;99.90;;;;;;5040878;28;20060;-69
2022/06/26 04:49:23;;;;;;;14.60;6.57;;;15.20;99.90;;;;;;5040717;28;20033;-71
2022/06/26 04:51:49;;;;;;;14.90;6.93;;;15.20;99.90;;;;;;5039052;28;20025;-71
2022/06/26 04:54:14;;;;;;;16.52;6.50;;;15.20;99.90;;;;;;5019783;28;20506;-70
2022/06/26 04:56:40;;;;;;;15.95;7.05;;;15.30;99.90;;;;;;5037735;28;20481;-71
2022/06/26 04:59:06;;;;;;;17.85;6.93;;;15.30;99.90;;;;;;5046134;28;20616;-71
2022/06/26 05:01:32;;;;;;;18.55;6.95;;;15.40;99.90;;;;;;5041860;28;20037;-71
2022/06/26 05:03:58;;;;;;;18.88;7.38;;;15.40;99.90;;;;;;5022498;28;20059;-70
2022/06/26 05:06:24;;;;;;;18.42;8.05;;;15.40;99.90;;;;;;5042789;28;20493;-72
2022/06/26 05:08:50;;;;;;;21.50;7.20;;;15.50;99.90;;;;;;5040061;28;20044;-71
2022/06/26 05:11:16;;;;;;;18.33;7.53;;;15.50;99.90;;;;;;5042022;28;20040;-71
2022/06/26 05:13:41;;;;;;;18.42;6.97;;;15.50;99.90;;;;;;5021433;28;20128;-71
2022/06/26 05:16:07;;;;;;;17.73;7.43;;;15.60;99.90;;;;;;5042948;28;20047;-71
2022/06/26 05:18:33;;;;;;;17.08;7.43;;;15.60;99.90;;;;;;5046264;28;20040;-69
2022/06/26 05:20:59;;;;;;;14.50;6.82;;;15.60;99.90;;;;;;5046059;28;20116;-71
2022/06/26 05:23:24;;;;;;;17.60;7.47;;;15.60;99.90;;;;;;5043386;28;20044;-72
2022/06/26 05:25:51;;;;;;;13.15;6.88;;;15.60;99.90;;;;;;5023197;28;20079;-71
2022/06/26 05:28:17;;;;;;;13.70;6.13;;;15.70;99.90;;;;;;5042095;28;20032;-71
2022/06/26 05:30:42;;;;;;;16.48;6.05;;;15.70;99.90;;;;;;5039541;28;20033;-71
2022/06/26 05:33:08;;;;;;;14.07;5.65;;;15.70;99.90;;;;;;5041558;28;20033;-71
2022/06/26 05:35:34;;;;;;;12.55;5.80;;;15.80;99.90;;;;;;5039327;28;20029;-70
2022/06/26 05:38:00;;;;;;;12.23;5.65;;;15.80;99.90;;;;;;5022947;28;20041;-71
2022/06/26 05:40:26;;;;;;;15.07;5.60;;;15.90;99.90;;;;;;5040585;28;20037;-71
2022/06/26 05:42:57;;;;;;;10.15;4.65;;;16.00;99.90;;;;;;5041319;28;20041;-70
2022/06/26 05:45:23;;;;;;;14.00;5.30;;;16.10;99.90;;;;;;5022154;28;20409;-72
2022/06/26 05:47:49;;;;;;;10.45;4.68;;;16.30;99.90;;;;;;5038942;28;20025;-70
2022/06/26 05:50:15;;;;;;;12.30;4.80;;;16.50;99.90;;;;;;5023258;28;20148;-71
2022/06/26 05:52:41;;;;;;;8.18;4.03;;;16.70;99.90;;;;;;5043826;28;20092;-72
2022/06/26 05:55:07;;;;;;;8.13;3.88;;;17.00;99.90;;;;;;5023832;28;20057;-71
2022/06/26 05:57:33;;;;;;;7.80;3.20;;;17.20;99.90;;;;;;5042434;28;20033;-71
2022/06/26 05:59:58;;;;;;;6.63;2.88;;;17.20;99.90;;;;;;5044465;28;20048;-73
2022/06/26 06:02:24;;;;;;;8.60;2.95;;;17.30;99.90;;;;;;5039240;28;20040;-71
2022/06/26 06:04:50;;;;;;;10.00;3.17;;;17.60;99.90;;;;;;5038973;28;20037;-70
2022/06/26 06:07:15;;;;;;;5.65;2.55;;;17.80;99.90;;;;;;5022037;28;20039;-72
2022/06/26 06:09:41;;;;;;;5.78;2.72;;;17.90;99.90;;;;;;5020361;28;20103;-72
2022/06/26 06:12:07;;;;;;;5.72;2.60;;;18.00;99.90;;;;;;5037888;28;20033;-70
2022/06/26 06:14:32;;;;;;;3.75;2.13;;;17.90;99.90;;;;;;5040361;28;20545;-72
2022/06/26 06:17:35;;;;;;;3.97;2.15;;;17.90;99.90;;;;;;5037001;28;20037;-72
2022/06/26 06:19:43;;;;;;;7.07;2.85;;;17.90;99.90;;;;;;5034049;28;20124;-71
2022/06/26 06:22:09;;;;;;;7.07;3.30;;;18.10;99.90;;;;;;5018385;28;20735;-71
2022/06/26 06:24:34;;;;;;;7.50;3.00;;;18.30;99.90;;;;;;5038963;28;20140;-71
2022/06/26 06:27:00;;;;;;;6.80;2.65;;;18.60;99.90;;;;;;5039594;28;20509;-71
2022/06/26 06:29:25;;;;;;;7.68;2.22;;;18.80;99.90;;;;;;5019739;28;20588;-71
2022/06/26 06:31:51;;;;;;;3.67;2.22;;;19.00;99.90;;;;;;5037590;28;20494;-71
2022/06/26 06:34:16;;;;;;;4.25;2.08;;;19.10;99.90;;;;;;5020688;28;20133;-72
2022/06/26 06:36:42;;;;;;;6.18;1.83;;;19.30;99.90;;;;;;5020895;28;20029;-72
2022/06/26 06:39:08;;;;;;;6.20;2.17;;;19.40;99.90;;;;;;5037993;28;20061;-70
2022/06/26 06:41:33;;;;;;;5.22;1.55;;;19.40;99.90;;;;;;5022421;28;20052;-72
2022/06/26 06:43:59;;;;;;;9.98;2.13;;;19.50;99.90;;;;;;5020751;28;20029;-72
2022/06/26 06:46:24;;;;;;;3.28;1.77;;;19.40;99.90;;;;;;5037723;28;20135;-71
2022/06/26 06:48:50;;;;;;;2.47;1.60;;;19.30;99.90;;;;;;5037796;28;20044;-70
2022/06/26 06:51:15;;;;;;;8.27;1.60;;;19.20;99.90;;;;;;5020361;28;20052;-71
2022/06/26 06:53:41;;;;;;;4.65;1.58;;;19.20;99.90;;;;;;5039816;28;20499;-71
2022/06/26 06:56:07;;;;;;;7.43;2.55;;;19.30;99.90;;;;;;5035562;28;20600;-71
2022/06/26 06:58:32;;;;;;;6.85;1.85;;;19.20;99.90;;;;;;5022202;28;20064;-70
2022/06/26 07:00:58;;;;;;;2.75;0.93;;;19.10;99.90;;;;;;5035964;28;20030;-70
2022/06/26 07:03:24;;;;;;;4.70;1.55;;;19.20;99.90;;;;;;5036354;28;20528;-70
2022/06/26 07:05:49;;;;;;;7.18;1.60;;;19.20;99.90;;;;;;5040268;28;20049;-72
2022/06/26 07:08:15;;;;;;;5.60;1.30;;;19.30;99.90;;;;;;5020862;28;20052;-72
2022/06/26 07:10:40;;;;;;;3.95;1.95;;;19.30;99.90;;;;;;5040728;28;20040;-70
2022/06/26 07:13:06;;;;;;;4.47;1.33;;;19.50;99.90;;;;;;5035596;28;20038;-69
2022/06/26 07:15:31;;;;;;;5.00;1.10;;;19.60;99.90;;;;;;5040419;28;20051;-69
2022/06/26 07:17:57;;;;;;;6.72;1.52;;;19.70;99.90;;;;;;5039709;28;20041;-69
2022/06/26 07:20:23;;;;;;;5.70;1.20;;;19.80;99.90;;;;;;5037968;28;20078;-69
2022/06/26 07:22:49;;;;;;;3.03;1.08;;;20.00;99.90;;;;;;5037651;28;20152;-69
2022/06/26 07:25:15;;;;;;;2.95;1.08;;;20.10;99.90;;;;;;5025600;28;20120;-69
2022/06/26 07:27:40;;;;;;;3.42;1.45;;;20.00;99.90;;;;;;5021089;28;20471;-70
2022/06/26 07:30:06;;;;;;;4.97;1.33;;;20.00;99.90;;;;;;5017984;28;20053;-68
2022/06/26 07:32:32;;;;;;;4.57;1.58;;;20.10;99.90;;;;;;5039505;28;20052;-69
2022/06/26 07:34:59;;;;;;;3.10;1.30;;;20.20;99.90;;;;;;5035050;28;20427;-68
2022/06/26 07:37:25;;;;;;;2.17;1.00;;;20.00;99.90;;;;;;5021696;28;20080;-68
2022/06/26 07:39:50;;;;;;;4.95;1.35;;;19.90;99.90;;;;;;5036146;28;20465;-69
2022/06/26 07:42:16;;;;;;;6.82;1.25;;;19.70;99.90;;;;;;5020179;28;20037;-69
2022/06/26 07:44:42;;;;;;;3.08;0.90;;;19.60;99.90;;;;;;5021597;28;20045;-68
2022/06/26 07:47:07;;;;;;;4.68;1.10;;;19.60;99.90;;;;;;5037955;28;20037;-69
2022/06/26 07:49:33;;;;;;;3.22;1.20;;;19.50;99.90;;;;;;5018155;28;20049;-69
2022/06/26 07:51:58;;;;;;;5.38;1.38;;;19.50;99.90;;;;;;5031804;28;20041;-68
2022/06/26 07:54:24;;;;;;;3.65;1.30;;;19.40;99.90;;;;;;5033346;28;20032;-69
2022/06/26 07:56:50;;;;;;;2.35;1.00;;;19.50;99.90;;;;;;5031510;28;20621;-69
2022/06/26 07:59:16;;;;;;;6.07;1.30;;;19.40;99.90;;;;;;5017316;28;20050;-72
2022/06/26 08:01:42;;;;;;;4.45;1.17;;;19.30;99.90;;;;;;5032577;28;20044;-70
2022/06/26 08:04:09;;;;;;;8.15;1.90;;;19.20;99.90;;;;;;5032504;28;20083;-70
2022/06/26 08:06:35;;;;;;;4.22;1.52;;;19.20;99.90;;;;;;5031971;28;20038;-72
2022/06/26 08:09:01;;;;;;;4.80;1.20;;;19.10;99.90;;;;;;5019914;28;20036;-71
2022/06/26 08:11:26;;;;;;;2.30;1.10;;;19.10;99.90;;;;;;5014464;28;20432;-71
2022/06/26 08:13:52;;;;;;;3.85;0.88;;;19.10;99.90;;;;;;5032229;28;20086;-69
2022/06/26 08:16:18;;;;;;;2.95;0.90;;;19.20;99.90;;;;;;5038241;28;20026;-70
2022/06/26 08:18:44;;;;;;;3.85;1.42;;;19.10;99.90;;;;;;5036684;28;20124;-71
2022/06/26 08:23:54;;;;;;;2.97;1.00;;;19.10;99.90;;;;;;5033698;28;20032;-72
2022/06/26 08:26:19;;;;;;;2.15;0.70;;;19.10;99.90;;;;;;5044315;28;21597;-72
2022/06/26 08:28:45;;;;;;;2.50;1.00;;;19.10;99.90;;;;;;5040118;28;20036;-72
2022/06/26 08:31:11;;;;;;;7.03;1.38;;;19.00;99.90;;;;;;5037843;28;20141;-71
2022/06/26 08:33:36;;;;;;;4.53;0.90;;;19.10;99.90;;;;;;5040197;28;20049;-71
2022/06/26 08:36:04;;;;;;;4.32;1.00;;;19.10;99.90;;;;;;5015357;28;20068;-71
2022/06/26 08:38:30;;;;;;;4.75;1.00;;;19.10;99.90;;;;;;5041373;28;20041;-70
2022/06/26 08:40:59;;;;;;;1.48;0.70;;;19.20;99.90;;;;;;5036482;28;20048;-70
2022/06/26 08:43:25;;;;;;;4.57;1.10;;;19.20;99.90;;;;;;5036572;28;20037;-71
2022/06/26 08:45:54;;;;;;;4.55;0.75;;;19.30;99.90;;;;;;5022143;28;20032;-72
2022/06/26 08:48:24;;;;;;;3.63;1.02;;;19.30;99.90;;;;;;5020667;28;20559;-71
2022/06/26 08:50:50;;;;;;;1.67;0.65;;;19.40;99.90;;;;;;5039877;28;20528;-70
2022/06/26 08:53:16;;;;;;;3.13;0.82;;;19.50;99.90;;;;;;5038933;28;20037;-72
2022/06/26 08:55:42;;;;;;;2.40;0.80;;;19.60;99.90;;;;;;5039639;28;20080;-71
2022/06/26 08:58:09;;;;;;;4.35;0.90;;;19.60;99.90;;;;;;5036547;28;20120;-71
2022/06/26 09:00:34;;;;;;;2.45;1.00;;;19.70;99.90;;;;;;5039567;28;20052;-73
2022/06/26 09:03:00;;;;;;;2.70;0.70;;;19.80;99.90;;;;;;5037000;28;20482;-70
2022/06/26 09:05:26;;;;;;;3.78;0.98;;;19.90;99.90;;;;;;5041514;28;20094;-71
2022/06/26 09:07:53;;;;;;;14.43;2.42;;;19.90;99.90;;;;;;5036695;28;20033;-72
2022/06/26 09:10:22;;;;;;;3.50;0.90;;;19.90;99.90;;;;;;5022734;28;20064;-71
2022/06/26 09:12:56;;;;;;;7.55;1.30;;;19.80;99.90;;;;;;5019044;28;20124;-70
2022/06/26 09:15:23;;;;;;;1.75;0.60;;;19.80;99.90;;;;;;5023829;28;20047;-72
2022/06/26 09:18:03;;;;;;;2.88;1.10;;;19.80;99.90;;;;;;5036085;28;20501;-69
2022/06/26 09:20:30;;;;;;;;;;;19.70;99.90;;;;;;5035052;28;20049;-71
2022/06/26 09:22:57;;;;;;;2.67;1.45;;;19.70;99.90;;;;;;5021287;28;20575;-71
2022/06/26 09:25:38;;;;;;;3.30;1.08;;;19.80;99.90;;;;;;5040359;28;20505;-71
2022/06/26 09:28:09;;;;;;;4.80;1.20;;;19.90;99.90;;;;;;5034168;28;20039;-71
2022/06/26 09:31:06;;;;;;;1.70;0.77;;;20.00;99.90;;;;;;5020217;28;20416;-70
2022/06/26 09:33:34;;;;;;;2.22;0.80;;;20.10;99.90;;;;;;5033105;28;20038;-69
2022/06/26 09:36:03;;;;;;;4.55;1.50;;;20.30;99.90;;;;;;5038263;28;20115;-72
2022/06/26 09:38:37;;;;;;;4.88;1.08;;;20.30;99.90;;;;;;5038298;28;20030;-71
2022/06/26 09:41:06;;;;;;;7.00;1.27;;;20.50;99.90;;;;;;5039474;28;20106;-70
2022/06/26 09:43:34;;;;;;;2.53;1.10;;;20.40;99.90;;;;;;5035763;28;20116;-71
2022/06/26 09:46:02;;;;;;;3.38;0.80;;;20.40;99.90;;;;;;5035622;28;20030;-70
2022/06/26 09:48:28;;;;;;;1.65;0.95;;;20.50;99.90;;;;;;5040703;28;20039;-71
2022/06/26 09:50:55;;;;;;;3.08;1.10;;;20.50;99.90;;;;;;5018933;28;20045;-71
2022/06/26 09:53:22;;;;;;;4.20;1.17;;;20.70;99.90;;;;;;5033930;28;20034;-70
2022/06/26 09:55:50;;;;;;;5.07;0.80;;;20.80;99.90;;;;;;5022612;28;20096;-69
2022/06/26 09:58:16;;;;;;;3.33;0.80;;;20.80;99.90;;;;;;5043158;28;20022;-71
2022/06/26 10:00:42;;;;;;;5.40;0.93;;;20.80;99.90;;;;;;5021298;28;20045;-68
2022/06/26 10:08:43;;;;;;;4.07;0.70;;;20.80;99.90;;;;;;5041165;28;20036;-69
2022/06/26 10:11:09;;;;;;;4.72;1.00;;;20.80;99.90;;;;;;5037308;28;20037;-70
2022/06/26 10:13:38;;;;;;;3.50;1.25;;;20.70;99.90;;;;;;5021080;28;20092;-72
2022/06/26 10:16:34;;;;;;;2.88;0.85;;;20.80;99.90;;;;;;5038910;28;20091;-69
2022/06/26 10:19:19;;;;;;;4.80;1.33;;;21.00;99.90;;;;;;5035328;28;20486;-71
2022/06/26 10:21:46;;;;;;;6.82;0.95;;;21.30;99.90;;;;;;5037871;28;20055;-70
2022/06/26 10:24:12;;;;;;;3.60;1.08;;;21.40;99.90;;;;;;5038658;28;20049;-68
2022/06/26 10:26:38;;;;;;;2.72;0.88;;;21.50;99.90;;;;;;5041076;28;20059;-68
2022/06/26 10:29:11;;;;;;;2.75;1.20;;;21.70;99.90;;;;;;5037993;28;20037;-67
2022/06/26 10:31:47;;;;;;;2.67;0.93;;;21.80;99.90;;;;;;5038309;28;20040;-69
2022/06/26 10:34:19;;;;;;;3.38;0.75;;;21.90;99.90;;;;;;5019040;28;20060;-69
2022/06/26 10:37:05;;;;;;;1.80;0.70;;;22.00;99.90;;;;;;5019284;28;20030;-69
2022/06/26 10:39:49;;;;;;;4.07;1.20;;;22.10;99.90;;;;;;5034390;28;20029;-69
2022/06/26 10:45:31;;;;;;;3.30;0.98;;;22.10;99.90;;;;;;5038220;28;20116;-68
2022/06/26 10:48:00;;;;;;;2.35;1.15;;;22.20;99.90;;;;;;5032356;28;20036;-67
2022/06/26 10:50:38;;;;;;;4.28;0.85;;;22.20;99.90;;;;;;5020604;28;20049;-67
2022/06/26 10:53:21;;;;;;;1.65;0.90;;;22.30;99.90;;;;;;5036881;28;20048;-68
2022/06/26 10:55:54;;;;;;;1.60;0.88;;;22.40;99.90;;;;;;5032783;28;20029;-67
2022/06/26 10:58:22;;;;;;;4.13;1.52;;;22.30;99.90;;;;;;5033045;28;20029;-71
2022/06/26 11:00:49;;;;;;;3.75;1.30;;;22.30;99.90;;;;;;5027418;28;20030;-68
2022/06/26 11:03:16;;;;;;;6.18;1.00;;;22.20;99.90;;;;;;5030336;28;20439;-69
2022/06/26 11:05:51;;;;;;;4.40;1.13;;;22.10;99.90;;;;;;5032717;28;20408;-67
2022/06/26 11:08:34;;;;;;;2.78;0.93;;;22.10;99.90;;;;;;5028880;28;20092;-70
2022/06/26 11:11:17;;;;;;;2.00;1.13;;;22.10;99.90;;;;;;5012108;28;20041;-71
2022/06/26 11:13:52;;;;;;;2.97;0.82;;;22.10;99.90;;;;;;5019314;28;20496;-70
2022/06/26 11:16:27;;;;;;;5.07;1.33;;;22.40;99.90;;;;;;5031719;28;20043;-71
2022/06/26 11:18:52;;;;;;;7.15;1.52;;;22.40;99.90;;;;;;5029794;28;20038;-70
2022/06/26 11:21:18;;;;;;;2.45;1.05;;;22.40;99.90;;;;;;5031700;28;20044;-70
2022/06/26 11:23:44;;;;;;;1.92;0.95;;;22.50;99.90;;;;;;5031823;28;20041;-70
2022/06/26 11:26:13;;;;;;;2.60;0.93;;;22.60;99.90;;;;;;5033071;28;20115;-70
2022/06/26 11:28:44;;;;;;;4.57;1.25;;;22.60;99.90;;;;;;5036428;28;20042;-71
2022/06/26 11:31:20;;;;;;;2.25;1.20;;;22.70;99.90;;;;;;5034045;28;20045;-70
2022/06/26 11:33:46;;;;;;;3.20;0.98;;;22.70;99.90;;;;;;5036218;28;20028;-71
2022/06/26 11:36:14;;;;;;;3.70;0.93;;;22.50;99.90;;;;;;5034626;28;20029;-69
2022/06/26 11:38:48;;;;;;;2.45;1.20;;;22.40;99.90;;;;;;5017665;28;20568;-70
2022/06/26 11:41:14;;;;;;;2.10;1.17;;;22.40;99.90;;;;;;5030427;28;20029;-67
2022/06/26 11:43:48;;;;;;;1.52;0.88;;;22.40;99.90;;;;;;5039231;28;20037;-69
2022/06/26 11:46:14;;;;;;;11.38;1.35;;;22.30;99.90;;;;;;5018032;28;20048;-69
2022/06/26 11:48:40;;;;;;;3.00;1.00;;;22.40;99.90;;;;;;5039183;28;20477;-71
2022/06/26 11:51:05;;;;;;;2.80;1.23;;;22.50;99.90;;;;;;5036411;28;20025;-69
2022/06/26 11:53:32;;;;;;;6.43;1.35;;;22.40;99.90;;;;;;5037082;28;20029;-70
2022/06/26 11:56:01;;;;;;;2.67;1.23;;;22.40;99.90;;;;;;5037109;28;20029;-67
2022/06/26 11:58:31;;;;;;;3.90;1.20;;;22.40;99.90;;;;;;5013812;28;20445;-68
2022/06/26 12:01:09;;;;;;;3.13;0.82;;;22.40;99.90;;;;;;5036094;28;20030;-68
2022/06/26 12:03:55;;;;;;;2.28;1.23;;;22.20;99.90;;;;;;5040749;28;20029;-70
2022/06/26 12:06:39;;;;;;;1.92;1.13;;;22.10;99.90;;;;;;5019174;28;20033;-70
2022/06/26 12:09:24;;;;;;;3.47;1.08;;;22.00;99.90;;;;;;5039115;28;20048;-68
2022/06/26 12:11:52;;;;;;;3.88;1.30;;;21.90;99.90;;;;;;5034707;28;20493;-70
2022/06/26 12:14:20;;;;;;;4.57;1.38;;;21.90;99.90;;;;;;5042407;28;20111;-68
2022/06/26 12:16:48;;;;;;;2.40;0.80;;;22.00;99.90;;;;;;5040254;28;20080;-69
2022/06/26 12:19:14;;;;;;;4.30;1.35;;;22.10;99.90;;;;;;5017652;28;20097;-68
2022/06/26 12:21:40;;;;;;;6.65;1.25;;;22.30;99.90;;;;;;5043355;28;20082;-69
2022/06/26 12:24:11;;;;;;;5.35;1.30;;;22.30;99.90;;;;;;5039260;28;20029;-69
2022/06/26 12:26:38;;;;;;;3.22;1.30;;;22.40;99.90;;;;;;5043659;28;20497;-71
2022/06/26 12:29:12;;;;;;;6.38;1.30;;;22.40;99.90;;;;;;5041010;28;20044;-69
2022/06/26 12:31:39;;;;;;;2.50;1.42;;;22.30;99.90;;;;;;5022160;28;20041;-70
2022/06/26 12:34:05;;;;;;;5.28;1.42;;;22.20;99.90;;;;;;5023178;28;20037;-70
2022/06/26 12:36:32;;;;;;;2.92;1.20;;;22.30;99.90;;;;;;5020644;28;20032;-69
2022/06/26 12:38:58;;;;;;;3.80;1.50;;;22.20;99.90;;;;;;5039687;28;20424;-69
2022/06/26 12:41:24;;;;;;;2.50;1.25;;;22.30;99.90;;;;;;5043396;28;20075;-69
2022/06/26 12:43:54;;;;;;;3.78;1.13;;;22.20;99.90;;;;;;5040593;28;20421;-71
2022/06/26 12:46:21;;;;;;;3.15;1.17;;;22.10;99.90;;;;;;5023167;28;20037;-70
2022/06/26 12:48:47;;;;;;;2.45;0.90;;;22.20;99.90;;;;;;5038267;28;20033;-72
2022/06/26 12:51:14;;;;;;;2.55;1.05;;;22.20;99.90;;;;;;5042805;28;20063;-69
2022/06/26 12:53:40;;;;;;;5.32;1.00;;;22.10;99.90;;;;;;5034706;28;20042;-69
2022/06/26 12:56:07;;;;;;;7.43;1.85;;;22.10;99.90;;;;;;5035726;28;20405;-70
2022/06/26 12:58:33;;;;;;;3.80;1.00;;;21.90;99.90;;;;;;5018942;28;20077;-69
2022/06/26 13:00:59;;;;;;;3.50;0.88;;;21.90;99.90;;;;;;5034725;28;20030;-68